Terminal Aerodrome Forecast
Issued by NWS

Home | Current Version | Previous Version | Text Only | Print | Product List | Glossary On
Versions: 1 2 3 4 5 6 7 8 9 10 11 12 13 14
230
FTUS43 KOAX 201929 AAA
TAFSNY
TAF AMD
KSNY 201929Z 2019/2118 18010KT P6SM SCT250
     FM210600 31022G32KT P6SM BKN060
     FM211500 31020G30KT P6SM SKC=

USA.gov is the U.S. government's official web portal to all federal, state and local government web resources and services.